»·PEaware :: N969DA KBFI-KOLM

N969DA :: KBFI-KOLM

FLIGHT INFORMATION

Flight Status: Arrived
Operator: Privately registered:
United States
More flights under this callsign
Pilot: Anonymous 20880 (20880)
Aircraft: Unknown
(DA62)
More flights by this aircraft type
Origin: KBFI Boeing Field/King Co Intl
United States
Destination: KOLM Olympia
United States
More flights between these airports :: More routes between these airports
Route: +KENT8 OLM
File this flight plan on PilotEdge
Remarks:
Altitude:
(Current/Filed)
3,000ft
Speed:
(Current/Filed)
140kts
Departed: 07-Jan-19 03:21 PM
Arrived: 07-Jan-19 03:46 PM
Distance/Time
Traveled:
42nm/0:25
Distance/Time
To Go:
Arrived

Flight Plot

Page will automatically refresh every two minutes.

Flight plan parsing failed; only flown route is shown


Map Options




Map Legend


Flown Route
Filed Route
Departure Airport
Arrival Airport
Navaid (VOR, NDB)
Fix

Horizontal Profiles

Position Reports

Time Latitude Longitude Heading Altitude Ground
Speed
07-Jan-19 14:52 47.539449 -122.307133 149 20ft 0kts
07-Jan-19 14:53 47.539449 -122.307133 149 20ft 0kts
07-Jan-19 14:54 47.539449 -122.307133 149 20ft 0kts
07-Jan-19 14:55 47.539449 -122.307133 149 20ft 0kts
07-Jan-19 14:56 47.539449 -122.307133 149 20ft 0kts
07-Jan-19 14:57 47.539449 -122.307133 149 20ft 0kts
07-Jan-19 14:58 47.539449 -122.307133 149 20ft 0kts
07-Jan-19 14:59 47.539449 -122.307133 149 20ft 0kts
07-Jan-19 15:00 47.539449 -122.307133 149 20ft 0kts
07-Jan-19 15:01 47.539449 -122.307133 149 20ft 0kts
07-Jan-19 15:02 47.539449 -122.307133 149 20ft 0kts
07-Jan-19 15:03 47.539449 -122.307133 149 20ft 0kts
07-Jan-19 15:04 47.539449 -122.307133 149 20ft 0kts
07-Jan-19 15:05 47.539449 -122.307133 149 20ft 0kts
07-Jan-19 15:06 47.539449 -122.307133 149 20ft 0kts
07-Jan-19 15:07 47.539449 -122.307133 149 20ft 0kts
07-Jan-19 15:08 47.539449 -122.307133 149 20ft 0kts
07-Jan-19 15:09 47.539449 -122.307133 149 20ft 0kts
07-Jan-19 15:10 47.539449 -122.307133 149 20ft 0kts
07-Jan-19 15:11 47.539449 -122.307133 149 20ft 0kts
07-Jan-19 15:12 47.539449 -122.307133 149 20ft 0kts
07-Jan-19 15:13 47.539449 -122.307133 149 20ft 0kts
07-Jan-19 15:14 47.539449 -122.307133 149 20ft 0kts
07-Jan-19 15:15 47.540534 -122.308739 319 20ft 6kts
07-Jan-19 15:16 47.541068 -122.309407 295 20ft 0kts
07-Jan-19 15:17 47.541068 -122.309407 295 20ft 0kts
07-Jan-19 15:18 47.541068 -122.309407 295 20ft 0kts
07-Jan-19 15:19 47.541068 -122.309407 295 20ft 0kts
07-Jan-19 15:20 47.532119 -122.304114 149 169ft 94kts
07-Jan-19 15:21 47.506538 -122.281794 152 1560ft 101kts
07-Jan-19 15:22 47.477594 -122.255426 150 2209ft 136kts
07-Jan-19 15:23 47.444216 -122.231534 180 2958ft 132kts
07-Jan-19 15:24 47.403781 -122.233991 184 2992ft 155kts
07-Jan-19 15:25 47.360844 -122.237465 184 2989ft 154kts
07-Jan-19 15:26 47.318320 -122.240692 184 2990ft 152kts
07-Jan-19 15:27 47.275656 -122.243360 184 2993ft 155kts
07-Jan-19 15:28 47.256829 -122.285335 274 2993ft 150kts
07-Jan-19 15:29 47.261507 -122.346645 274 2991ft 150kts
07-Jan-19 15:30 47.267138 -122.407694 275 2989ft 151kts
07-Jan-19 15:31 47.269886 -122.469195 265 2990ft 151kts
07-Jan-19 15:32 47.268279 -122.531065 265 2989ft 152kts
07-Jan-19 15:33 47.266595 -122.593265 265 2989ft 153kts
07-Jan-19 15:34 47.264827 -122.655546 264 2990ft 153kts
07-Jan-19 15:35 47.262984 -122.717975 264 2993ft 154kts
07-Jan-19 15:36 47.261116 -122.779889 264 2995ft 154kts
07-Jan-19 15:37 47.250332 -122.832900 193 2997ft 150kts
07-Jan-19 15:38 47.212155 -122.835334 187 2997ft 151kts
07-Jan-19 15:39 47.176810 -122.843714 190 2997ft 151kts
07-Jan-19 15:40 47.141325 -122.853932 191 2998ft 151kts
07-Jan-19 15:41 47.102319 -122.865462 191 2707ft 161kts
07-Jan-19 15:42 47.061675 -122.877460 191 1924ft 144kts
07-Jan-19 15:43 47.023030 -122.888844 191 1165ft 142kts
07-Jan-19 15:44 46.988829 -122.898917 189 560ft 116kts
07-Jan-19 15:45 46.967238 -122.906556 269 201ft 12kts
07-Jan-19 15:46 46.967238 -122.907016 266 201ft 6kts
07-Jan-19 15:47 46.967239 -122.908322 268 201ft 0kts
07-Jan-19 15:48 46.967251 -122.908456 274 201ft 0kts
07-Jan-19 15:49 46.967359 -122.909639 357 201ft 0kts

Navigation Log

Ident Type
Flight plan parsing failed, navigation log unavailable